KGCC

Gillette-Campbell County Airport

Gillette, Wyoming, USA
KGCC 230643Z 2307/2406 11010KT P6SM SCT250 FM231900 02020KT P6SM -SHRA OVC030 FM232100 34020G31KT P6SM -SHRA OVC008 FM240300 34015G25KT 2SM -SN VV006
Issued Valid From Valid To
Apr-23 @ 06:43 UTC
(3 hours ago)
Apr-23 @ 07:00 UTC
(2 hours ago)
Apr-24 @ 06:00 UTC
(in 21 hours)
Apr-23 @ 07:00 to Apr-23 @ 19:00
KGCC 230643Z 2307/2406 11010KT P6SM SCT250
Wind Visibility Clouds
110° at 10 knots Greater than 6 miles
  • Scattered at 25,000' AGL
From Apr-23 @ 19:00 to Apr-23 @ 21:00
FM231900 02020KT P6SM -SHRA OVC030
Wind Visibility Clouds Conditions
20° at 20 knots Greater than 6 miles
  • Overcast at 3,000' AGL
  • Light Rain
From Apr-23 @ 21:00 to Apr-24 @ 03:00
FM232100 34020G31KT P6SM -SHRA OVC008
Wind Visibility Clouds Conditions
340° at 20 knots
 Gusting to 31 knots
Greater than 6 miles
  • Overcast at 800' AGL
  • Light Rain
From Apr-24 @ 03:00 to Apr-24 @ 06:00
FM240300 34015G25KT 2SM -SN VV006
Wind Visibility Clouds Conditions
340° at 15 knots
 Gusting to 25 knots
2 miles
  • Vertical visibility at 600' AGL
  • Light Snow
KGCC 230643Z 2307/2406 11010KT P6SM SCT250 FM231900 02020KT P6SM -SHRA OVC030 FM232100 34020G31KT P6SM -SHRA OVC008 FM240300 34015G25KT 2SM -SN VV006
Issued Apr-23 @ 06:43 UTC
(3 hours ago)
Valid From Apr-23 @ 07:00 UTC
(2 hours ago)
Valid To Apr-24 @ 06:00 UTC
(in 21 hours)
Apr-23 @ 07:00 - Apr-23 @ 19:00
Wind Visibility
110° at 10 knots Greater than 6 miles
Clouds
  • Scattered at 25,000' AGL
From Apr-23 @ 19:00 - Apr-23 @ 21:00
Wind Visibility
20° at 20 knots Greater than 6 miles
Clouds
  • Overcast at 3,000' AGL
Conditions
  • Light Rain
From Apr-23 @ 21:00 - Apr-24 @ 03:00
Wind Visibility
340° at 20 knots
 Gusting to 31 knots
Greater than 6 miles
Clouds
  • Overcast at 800' AGL
Conditions
  • Light Rain
From Apr-24 @ 03:00 - Apr-24 @ 06:00
Wind Visibility
340° at 15 knots
 Gusting to 25 knots
2 miles
Clouds
  • Vertical visibility at 600' AGL
Conditions
  • Light Snow